Time;durP1;ratioP1;P1;durP2;ratioP2;P2;SDS_P1;SDS_P2;PMS_P1;PMS_P2;Temp;Humidity;BMP_temperature;BMP_pressure;BME280_temperature;BME280_humidity;BME280_pressure;Samples;Min_cycle;Max_cycle;Signal;HPM_P1;HPM_P2
2021/07/28 00:00:32;;;;;;;0.65;0.65;;;22.30;99.90;;;;;;5091988;28;20277;-72
2021/07/28 00:02:58;;;;;;;0.20;0.20;;;22.40;99.90;;;;;;5090773;28;20243;-71
2021/07/28 00:05:24;;;;;;;0.77;0.77;;;22.40;99.90;;;;;;5090416;28;20195;-72
2021/07/28 00:07:50;;;;;;;0.47;0.45;;;22.50;99.90;;;;;;5090516;28;20179;-72
2021/07/28 00:10:16;;;;;;;0.52;0.52;;;22.60;99.90;;;;;;5091819;28;20160;-72
2021/07/28 00:12:42;;;;;;;2.65;1.17;;;22.60;99.90;;;;;;5091775;28;20167;-71
2021/07/28 00:15:08;;;;;;;2.47;0.77;;;22.60;99.90;;;;;;5090154;28;20237;-71
2021/07/28 00:17:44;;;;;;;0.65;0.65;;;22.60;99.90;;;;;;5089516;28;20175;-72
2021/07/28 00:25:39;;;;;;;0.95;0.70;;;22.60;99.90;;;;;;5091351;28;20199;-72
2021/07/28 00:28:05;;;;;;;0.82;0.82;;;22.50;99.90;;;;;;5091491;28;20219;-72
2021/07/28 00:30:32;;;;;;;0.32;0.32;;;22.50;99.90;;;;;;5091404;28;20183;-72
2021/07/28 00:32:58;;;;;;;0.85;0.85;;;22.50;99.90;;;;;;5091325;28;20187;-72
2021/07/28 00:35:24;;;;;;;3.40;1.58;;;22.50;99.90;;;;;;5091083;28;20227;-72
2021/07/28 00:37:51;;;;;;;0.55;0.55;;;22.40;99.90;;;;;;5091342;28;20156;-72
2021/07/28 00:40:18;;;;;;;5.38;1.23;;;22.40;99.90;;;;;;5089947;28;20176;-72
2021/07/28 00:42:44;;;;;;;1.35;1.05;;;22.40;99.90;;;;;;5091184;28;20212;-72
2021/07/28 00:45:10;;;;;;;5.20;1.27;;;22.40;99.90;;;;;;5090975;28;20604;-72
2021/07/28 00:47:36;;;;;;;0.68;0.65;;;22.30;99.90;;;;;;5090891;28;20572;-72
2021/07/28 00:50:06;;;;;;;0.52;0.52;;;22.40;99.90;;;;;;5090966;28;20183;-71
2021/07/28 00:52:38;;;;;;;1.05;1.05;;;22.40;99.90;;;;;;5090981;28;20164;-72
2021/07/28 00:55:08;;;;;;;1.10;1.00;;;22.40;99.90;;;;;;5089504;28;20207;-72
2021/07/28 00:57:34;;;;;;;1.20;1.10;;;22.40;99.90;;;;;;5089573;28;20203;-72
2021/07/28 01:00:02;;;;;;;0.73;0.73;;;22.30;99.90;;;;;;5090794;28;20160;-72
2021/07/28 01:02:28;;;;;;;1.75;0.88;;;22.20;99.90;;;;;;5090750;28;20144;-72
2021/07/28 01:04:54;;;;;;;0.68;0.47;;;22.20;99.90;;;;;;5090613;28;20744;-72
2021/07/28 01:07:20;;;;;;;0.52;0.52;;;22.10;99.90;;;;;;5090618;28;20185;-72
2021/07/28 01:09:46;;;;;;;1.42;0.70;;;21.80;99.90;;;;;;5090115;28;20195;-71
2021/07/28 01:12:12;;;;;;;0.50;0.50;;;21.70;99.90;;;;;;5090469;28;20164;-72
2021/07/28 01:14:39;;;;;;;0.73;0.73;;;21.70;99.90;;;;;;5089195;28;20219;-72
2021/07/28 01:17:06;;;;;;;1.45;1.02;;;21.70;99.90;;;;;;5090491;28;20170;-72
2021/07/28 01:19:41;;;;;;;1.42;1.02;;;21.50;99.90;;;;;;5088993;28;20199;-72
2021/07/28 01:22:07;;;;;;;0.80;0.80;;;21.50;99.90;;;;;;5089174;28;20167;-72
2021/07/28 01:24:35;;;;;;;1.08;0.45;;;21.70;99.90;;;;;;5090428;28;20156;-72
2021/07/28 01:27:03;;;;;;;1.05;1.05;;;21.60;99.90;;;;;;5090421;28;20187;-72
2021/07/28 01:29:31;;;;;;;5.13;2.33;;;21.50;99.90;;;;;;5087874;28;20191;-72
2021/07/28 01:31:57;;;;;;;0.73;0.73;;;21.50;99.90;;;;;;5088894;28;20179;-71
2021/07/28 01:34:23;;;;;;;2.35;1.05;;;21.40;99.90;;;;;;5088793;28;20225;-73
2021/07/28 01:36:52;;;;;;;1.00;1.00;;;21.30;99.90;;;;;;5090251;28;20164;-72
2021/07/28 01:39:17;;;;;;;0.45;0.45;;;21.30;99.90;;;;;;5090085;28;20244;-72
2021/07/28 01:41:56;;;;;;;0.20;0.20;;;21.20;99.90;;;;;;5090369;28;20156;-73
2021/07/28 01:44:22;;;;;;;1.00;0.52;;;21.10;99.90;;;;;;5089971;28;20174;-73
2021/07/28 01:46:48;;;;;;;0.68;0.68;;;21.10;99.90;;;;;;5090008;28;20171;-72
2021/07/28 01:49:14;;;;;;;0.45;0.45;;;21.10;99.90;;;;;;5089649;28;20234;-72
2021/07/28 01:51:42;;;;;;;2.25;0.90;;;21.00;99.90;;;;;;5089989;28;20195;-72
2021/07/28 01:54:09;;;;;;;1.48;1.38;;;21.00;99.90;;;;;;5089815;28;20164;-72
2021/07/28 01:56:42;;;;;;;0.47;0.20;;;21.00;99.90;;;;;;5089857;28;20156;-72
2021/07/28 01:59:12;;;;;;;0.40;0.40;;;21.00;99.90;;;;;;5089693;28;20194;-72
2021/07/28 02:01:38;;;;;;;0.47;0.47;;;20.80;99.90;;;;;;5088415;28;20174;-72
2021/07/28 02:04:04;;;;;;;3.80;1.33;;;20.70;99.90;;;;;;5089825;28;20183;-72
2021/07/28 02:06:33;;;;;;;0.65;0.65;;;20.80;99.90;;;;;;5089758;28;20509;-72
2021/07/28 02:08:59;;;;;;;1.92;0.70;;;20.80;99.90;;;;;;5088253;28;20164;-72
2021/07/28 02:11:25;;;;;;;3.95;1.20;;;20.70;99.90;;;;;;5089604;28;20159;-72
2021/07/28 02:13:51;;;;;;;1.50;1.40;;;20.60;99.90;;;;;;5089614;28;20215;-72
2021/07/28 02:16:16;;;;;;;3.95;0.93;;;20.50;99.90;;;;;;5089308;28;20191;-72
2021/07/28 02:18:42;;;;;;;1.02;0.95;;;20.40;99.90;;;;;;5089647;28;20216;-72
2021/07/28 02:21:08;;;;;;;1.55;1.27;;;20.40;99.90;;;;;;5089415;28;20187;-72
2021/07/28 02:23:34;;;;;;;4.13;1.10;;;20.40;99.90;;;;;;5089420;28;20160;-72
2021/07/28 02:25:59;;;;;;;1.15;0.65;;;20.40;99.90;;;;;;5089351;28;20168;-72
2021/07/28 02:28:25;;;;;;;0.20;0.20;;;20.50;99.90;;;;;;5089341;28;20156;-72
2021/07/28 02:30:51;;;;;;;0.40;0.40;;;20.60;99.90;;;;;;5089178;28;20252;-72
2021/07/28 02:33:17;;;;;;;0.70;0.70;;;20.60;99.90;;;;;;5089106;28;20156;-72
2021/07/28 02:35:43;;;;;;;0.17;0.17;;;20.60;99.90;;;;;;5089119;28;20188;-72
2021/07/28 02:38:09;;;;;;;4.38;1.38;;;20.50;99.90;;;;;;5089240;28;20156;-71
2021/07/28 02:40:35;;;;;;;0.50;0.50;;;20.50;99.90;;;;;;5088750;28;20188;-72
2021/07/28 02:43:00;;;;;;;7.40;1.80;;;20.50;99.90;;;;;;5089265;28;20180;-72
2021/07/28 02:45:26;;;;;;;4.55;1.23;;;20.70;99.90;;;;;;5089164;28;20164;-72
2021/07/28 02:47:52;;;;;;;4.80;0.85;;;20.60;99.90;;;;;;5088994;28;20219;-71
2021/07/28 02:50:18;;;;;;;2.47;0.82;;;20.50;99.90;;;;;;5089171;28;20196;-72
2021/07/28 02:52:44;;;;;;;0.45;0.45;;;20.40;99.90;;;;;;5089398;28;20151;-72
2021/07/28 02:55:11;;;;;;;0.95;0.47;;;20.30;99.90;;;;;;5088964;28;20270;-73
2021/07/28 02:57:38;;;;;;;0.68;0.68;;;20.10;99.90;;;;;;5089139;28;20152;-72
2021/07/28 03:00:08;;;;;;;1.33;1.17;;;20.20;99.90;;;;;;5088869;28;20214;-72
2021/07/28 03:02:34;;;;;;;0.38;0.38;;;20.20;99.90;;;;;;5088978;28;20194;-72
2021/07/28 03:05:00;;;;;;;1.13;0.57;;;20.10;99.90;;;;;;5089152;28;20247;-72
2021/07/28 03:07:26;;;;;;;0.95;0.95;;;19.90;99.90;;;;;;5089085;28;20160;-72
2021/07/28 03:09:52;;;;;;;0.20;0.20;;;19.80;99.90;;;;;;5089028;28;20223;-72
2021/07/28 03:12:18;;;;;;;0.73;0.73;;;19.70;99.90;;;;;;5089137;28;20648;-73
2021/07/28 03:14:44;;;;;;;0.73;0.73;;;19.70;99.90;;;;;;5088984;28;20214;-72
2021/07/28 03:17:10;;;;;;;0.52;0.52;;;19.40;99.90;;;;;;5088959;28;20161;-72
2021/07/28 03:19:36;;;;;;;0.45;0.45;;;19.30;99.90;;;;;;5088860;28;20226;-72
2021/07/28 03:22:01;;;;;;;0.55;0.25;;;19.30;99.90;;;;;;5087575;28;20183;-72
2021/07/28 03:24:27;;;;;;;4.13;1.60;;;19.30;99.90;;;;;;5088911;28;20186;-72
2021/07/28 03:26:53;;;;;;;0.77;0.77;;;19.20;99.90;;;;;;5088804;28;20161;-72
2021/07/28 03:29:22;;;;;;;1.42;1.33;;;19.20;99.90;;;;;;5088844;28;20196;-72
2021/07/28 03:31:49;;;;;;;6.10;1.15;;;19.30;99.90;;;;;;5088795;28;20153;-72
2021/07/28 03:34:15;;;;;;;0.68;0.68;;;19.20;99.90;;;;;;5088752;28;20153;-71
2021/07/28 03:36:41;;;;;;;2.65;1.10;;;19.20;99.90;;;;;;5088746;28;20220;-71
2021/07/28 03:39:06;;;;;;;0.30;0.30;;;19.20;99.90;;;;;;5088569;28;20156;-72
2021/07/28 03:41:34;;;;;;;0.28;0.28;;;19.20;99.90;;;;;;5088647;28;20228;-72
2021/07/28 03:44:00;;;;;;;1.27;0.63;;;19.20;99.90;;;;;;5088881;28;20148;-72
2021/07/28 03:46:25;;;;;;;1.02;0.85;;;19.20;99.90;;;;;;5087375;28;20183;-71
2021/07/28 03:48:52;;;;;;;1.00;0.32;;;19.20;99.90;;;;;;5086956;28;20255;-72
2021/07/28 03:51:18;;;;;;;0.85;0.77;;;19.10;99.90;;;;;;5088598;28;20157;-72
2021/07/28 03:53:44;;;;;;;0.60;0.60;;;19.20;99.90;;;;;;5092095;28;20167;-72
2021/07/28 03:56:09;;;;;;;0.82;0.82;;;19.20;99.90;;;;;;5090782;28;20200;-72
2021/07/28 03:58:35;;;;;;;0.90;0.70;;;19.30;99.90;;;;;;5092195;28;20184;-72
2021/07/28 04:01:01;;;;;;;1.10;0.65;;;19.20;99.90;;;;;;5090656;28;20192;-72
2021/07/28 04:03:27;;;;;;;0.73;0.73;;;19.20;99.90;;;;;;5091980;28;20156;-72
2021/07/28 04:05:56;;;;;;;0.68;0.68;;;19.30;99.90;;;;;;5091908;28;20163;-72
2021/07/28 04:08:21;;;;;;;0.75;0.70;;;19.70;99.90;;;;;;5092260;28;20180;-72
2021/07/28 04:10:48;;;;;;;1.25;1.15;;;20.00;99.90;;;;;;5091493;28;20243;-72
2021/07/28 04:13:15;;;;;;;1.13;0.30;;;20.40;99.90;;;;;;5091765;28;20164;-70
2021/07/28 04:15:42;;;;;;;0.20;0.15;;;20.40;99.90;;;;;;5091694;28;20184;-72
2021/07/28 04:18:08;;;;;;;1.42;1.13;;;20.20;99.90;;;;;;5091804;28;20531;-71
2021/07/28 04:20:34;;;;;;;1.63;0.73;;;20.20;99.90;;;;;;5091704;28;20190;-71
2021/07/28 04:22:59;;;;;;;0.80;0.80;;;20.10;99.90;;;;;;5091688;28;20167;-72
2021/07/28 04:25:25;;;;;;;0.77;0.50;;;20.20;99.90;;;;;;5091876;28;20163;-71
2021/07/28 04:27:51;;;;;;;5.20;1.95;;;20.20;99.90;;;;;;5091698;28;20243;-72
2021/07/28 04:30:17;;;;;;;1.95;1.42;;;20.10;99.90;;;;;;5090158;28;20222;-72
2021/07/28 04:32:43;;;;;;;1.02;1.02;;;20.10;99.90;;;;;;5091560;28;20242;-72
2021/07/28 04:35:09;;;;;;;0.45;0.45;;;20.50;99.90;;;;;;5091462;28;20184;-72
2021/07/28 04:37:35;;;;;;;2.67;1.17;;;21.00;99.90;;;;;;5091402;28;20156;-72
2021/07/28 04:40:01;;;;;;;0.60;0.60;;;21.40;99.90;;;;;;5091175;28;20288;-72
2021/07/28 04:42:29;;;;;;;21.02;1.35;;;21.70;99.90;;;;;;5091579;28;20152;-73
2021/07/28 04:44:55;;;;;;;1.20;0.88;;;22.00;99.90;;;;;;5091237;28;20175;-72
2021/07/28 04:47:21;;;;;;;4.05;1.20;;;22.20;99.90;;;;;;5091119;28;20219;-70
2021/07/28 04:49:47;;;;;;;0.50;0.50;;;22.40;99.90;;;;;;5091121;28;20194;-72
2021/07/28 04:52:13;;;;;;;7.22;3.10;;;22.60;99.90;;;;;;5091254;28;20525;-72
2021/07/28 04:54:39;;;;;;;1.15;0.75;;;22.90;99.90;;;;;;5091045;28;20179;-73
2021/07/28 04:57:06;;;;;;;1.17;1.08;;;23.10;99.90;;;;;;5089896;28;20180;-72
2021/07/28 04:59:32;;;;;;;0.32;0.32;;;23.50;99.90;;;;;;5090977;28;20191;-72
2021/07/28 05:01:58;;;;;;;0.95;0.90;;;23.80;99.90;;;;;;5090897;28;20202;-73
2021/07/28 05:04:24;;;;;;;0.57;0.57;;;23.90;99.90;;;;;;5090845;28;20211;-72
2021/07/28 05:06:49;;;;;;;5.25;0.98;;;24.10;99.90;;;;;;5090915;28;20213;-73
2021/07/28 05:09:16;;;;;;;3.17;0.60;;;24.90;99.90;;;;;;5090666;28;20214;-72
2021/07/28 05:11:42;;;;;;;4.28;2.00;;;24.60;99.90;;;;;;5090725;28;20151;-73
2021/07/28 05:14:08;;;;;;;1.73;1.23;;;24.80;99.90;;;;;;5089206;28;20195;-70
2021/07/28 05:16:33;;;;;;;0.80;0.80;;;24.70;99.90;;;;;;5088714;28;20179;-72
2021/07/28 05:18:59;;;;;;;0.90;0.90;;;24.80;99.90;;;;;;5090571;28;20159;-72
2021/07/28 05:21:25;;;;;;;0.28;0.28;;;24.70;99.90;;;;;;5090493;28;20156;-72
2021/07/28 05:23:51;;;;;;;1.63;1.45;;;24.70;99.90;;;;;;5090618;28;20210;-73
2021/07/28 05:26:17;;;;;;;0.70;0.70;;;24.70;99.90;;;;;;5089255;28;20232;-73
2021/07/28 05:28:42;;;;;;;0.93;0.85;;;25.00;99.90;;;;;;5090166;28;20164;-73
2021/07/28 05:31:08;;;;;;;4.13;0.77;;;25.10;99.90;;;;;;5090224;28;20223;-72
2021/07/28 05:33:34;;;;;;;1.60;1.50;;;25.40;99.90;;;;;;5090231;28;20523;-71
2021/07/28 05:36:00;;;;;;;7.30;0.88;;;25.30;99.90;;;;;;5090098;28;20214;-72
2021/07/28 05:38:26;;;;;;;0.77;0.77;;;25.30;99.90;;;;;;5090178;28;20155;-72
2021/07/28 05:40:55;;;;;;;0.25;0.25;;;26.00;99.90;;;;;;5090108;28;20203;-72
2021/07/28 05:43:23;;;;;;;1.92;1.38;;;26.60;99.90;;;;;;5090252;28;20160;-71
2021/07/28 05:45:52;;;;;;;1.88;0.93;;;27.30;99.90;;;;;;5089810;28;20179;-71
2021/07/28 05:48:18;;;;;;;0.50;0.30;;;27.40;99.90;;;;;;5089729;28;20258;-72
2021/07/28 05:50:43;;;;;;;1.08;0.98;;;28.30;99.90;;;;;;5088561;28;20207;-72
2021/07/28 05:53:09;;;;;;;0.82;0.80;;;29.40;99.90;;;;;;5089822;28;20189;-72
2021/07/28 05:55:35;;;;;;;6.22;0.85;;;30.00;99.90;;;;;;5089726;28;20622;-72
2021/07/28 05:58:01;;;;;;;2.20;1.10;;;30.50;99.90;;;;;;5089702;28;20250;-72
2021/07/28 06:00:27;;;;;;;0.73;0.73;;;30.90;99.90;;;;;;5089727;28;20188;-72
2021/07/28 06:02:53;;;;;;;0.73;0.50;;;31.10;99.90;;;;;;5087868;28;20178;-71
2021/07/28 06:05:20;;;;;;;0.25;0.25;;;30.60;99.90;;;;;;5089506;28;20163;-72
2021/07/28 06:07:46;;;;;;;1.02;1.02;;;30.50;99.90;;;;;;5089809;28;20254;-72
2021/07/28 06:10:14;;;;;;;0.80;0.80;;;30.30;99.90;;;;;;5089540;28;20278;-72
2021/07/28 06:12:40;;;;;;;1.60;1.50;;;30.40;99.90;;;;;;5089389;28;20234;-72
2021/07/28 06:15:07;;;;;;;1.92;0.80;;;30.40;99.90;;;;;;5088380;28;20183;-72
2021/07/28 06:17:33;;;;;;;1.95;0.77;;;30.20;99.90;;;;;;5088155;28;20292;-72
2021/07/28 06:19:59;;;;;;;3.22;2.00;;;29.60;99.90;;;;;;5089227;28;20203;-72
2021/07/28 06:22:25;;;;;;;1.23;1.13;;;30.10;99.90;;;;;;5089315;28;20156;-72
2021/07/28 06:24:51;;;;;;;1.05;0.95;;;29.40;99.90;;;;;;5088930;28;20227;-71
2021/07/28 06:27:17;;;;;;;3.63;2.35;;;29.60;99.90;;;;;;5089015;28;20194;-71
2021/07/28 06:29:43;;;;;;;0.43;0.40;;;29.00;99.90;;;;;;5089297;28;20664;-72
2021/07/28 06:32:09;;;;;;;11.55;0.47;;;30.00;99.90;;;;;;5089346;28;20209;-71
2021/07/28 06:34:35;;;;;;;12.85;1.55;;;30.70;99.90;;;;;;5089105;28;20251;-71
2021/07/28 06:37:01;;;;;;;0.52;0.52;;;30.50;99.90;;;;;;5087685;28;20171;-71
2021/07/28 06:39:27;;;;;;;2.22;1.33;;;31.10;99.90;;;;;;5088917;28;20183;-71
2021/07/28 06:41:53;;;;;;;0.50;0.50;;;31.20;99.90;;;;;;5088972;28;20164;-71
2021/07/28 06:44:18;;;;;;;0.45;0.45;;;31.90;99.90;;;;;;5089163;28;20215;-71
2021/07/28 06:46:44;;;;;;;1.83;0.60;;;33.50;99.90;;;;;;5089113;28;20585;-71
2021/07/28 06:49:10;;;;;;;1.80;0.77;;;34.10;99.90;;;;;;5088806;28;20226;-71
2021/07/28 06:51:36;;;;;;;0.77;0.60;;;34.50;99.90;;;;;;5088834;28;20605;-71
2021/07/28 06:54:02;;;;;;;0.98;0.85;;;35.70;99.90;;;;;;5089114;28;20561;-71
2021/07/28 06:56:29;;;;;;;0.43;0.30;;;34.70;99.90;;;;;;5089175;28;20194;-71
2021/07/28 06:58:55;;;;;;;1.25;1.08;;;34.10;99.90;;;;;;5088925;28;20159;-71
2021/07/28 07:01:21;;;;;;;1.58;1.08;;;33.90;99.90;;;;;;5089002;28;20220;-71
2021/07/28 07:03:47;;;;;;;0.73;0.73;;;33.50;99.90;;;;;;5089118;28;20155;-70
2021/07/28 07:06:13;;;;;;;0.45;0.40;;;33.90;99.90;;;;;;5088671;28;20223;-71
2021/07/28 07:08:39;;;;;;;16.33;1.30;;;34.70;99.90;;;;;;5088633;28;20166;-69
2021/07/28 07:11:05;;;;;;;3.92;0.70;;;36.00;99.90;;;;;;5088852;28;20199;-69
2021/07/28 07:13:31;;;;;;;4.10;0.77;;;36.70;99.90;;;;;;5088697;28;20595;-69
2021/07/28 07:15:57;;;;;;;1.40;0.75;;;36.60;99.90;;;;;;5088754;28;20202;-70
2021/07/28 07:18:22;;;;;;;1.80;0.77;;;35.90;99.90;;;;;;5088539;28;20223;-70
2021/07/28 07:20:48;;;;;;;1.25;0.57;;;36.40;99.90;;;;;;5088602;28;20191;-70
2021/07/28 07:23:14;;;;;;;1.65;0.88;;;36.80;99.90;;;;;;5088811;28;20152;-69
2021/07/28 07:25:40;;;;;;;1.65;0.63;;;35.80;99.90;;;;;;5088836;28;20194;-69
2021/07/28 07:28:07;;;;;;;1.88;1.08;;;36.20;99.90;;;;;;5092762;28;20159;-69
2021/07/28 07:30:34;;;;;;;1.65;0.60;;;37.10;99.90;;;;;;5092573;28;20684;-71
2021/07/28 07:35:44;;;;;;;2.92;1.13;;;36.10;99.90;;;;;;5092620;28;20270;-71
2021/07/28 07:38:10;;;;;;;11.25;1.00;;;35.80;99.90;;;;;;5092471;28;20151;-71
2021/07/28 07:40:36;;;;;;;3.92;1.02;;;35.30;99.90;;;;;;5092578;28;20247;-70
2021/07/28 07:43:02;;;;;;;0.90;0.85;;;35.80;99.90;;;;;;5090426;28;20199;-70
2021/07/28 07:45:28;;;;;;;0.90;0.60;;;36.50;99.90;;;;;;5091160;28;20167;-69
2021/07/28 07:47:53;;;;;;;0.60;0.60;;;36.50;99.90;;;;;;5092031;28;20247;-70
2021/07/28 07:50:19;;;;;;;0.50;0.50;;;37.00;99.90;;;;;;5090260;28;20187;-71
2021/07/28 07:52:45;;;;;;;0.98;0.63;;;37.30;99.90;;;;;;5091389;28;20225;-72
2021/07/28 07:55:11;;;;;;;2.55;1.20;;;37.30;99.90;;;;;;5091986;28;20199;-72
2021/07/28 07:57:37;;;;;;;9.20;1.05;;;38.30;99.90;;;;;;5091843;28;20200;-72
2021/07/28 08:00:04;;;;;;;6.88;0.70;;;38.40;99.90;;;;;;5091654;28;20181;-71
2021/07/28 08:02:32;;;;;;;0.73;0.55;;;38.40;99.90;;;;;;5091451;28;20165;-72
2021/07/28 08:04:58;;;;;;;1.80;0.65;;;39.00;99.30;;;;;;5091733;28;20163;-71
2021/07/28 08:07:23;;;;;;;4.13;0.90;;;39.40;99.20;;;;;;5087745;28;20214;-71
2021/07/28 08:09:49;;;;;;;1.00;0.73;;;40.50;98.40;;;;;;5090886;28;20230;-71
2021/07/28 08:12:15;;;;;;;1.42;1.05;;;39.40;97.10;;;;;;5090094;28;20164;-71
2021/07/28 08:14:41;;;;;;;2.50;0.60;;;38.60;97.40;;;;;;5091435;28;20216;-70
2021/07/28 08:17:07;;;;;;;5.32;1.50;;;38.50;98.00;;;;;;5091649;28;20166;-71
2021/07/28 08:19:32;;;;;;;2.58;1.38;;;38.70;97.00;;;;;;5091174;28;20171;-71
2021/07/28 08:21:58;;;;;;;4.75;1.48;;;38.20;97.40;;;;;;5091414;28;20160;-71
2021/07/28 08:24:24;;;;;;;9.02;0.40;;;37.70;97.30;;;;;;5091056;28;20259;-71
2021/07/28 08:26:50;;;;;;;1.75;1.30;;;37.90;98.10;;;;;;5091210;28;20153;-71
2021/07/28 08:29:16;;;;;;;1.10;1.08;;;38.00;97.80;;;;;;5091019;28;20167;-71
2021/07/28 08:31:42;;;;;;;8.20;0.68;;;37.10;96.90;;;;;;5090940;28;20171;-71
2021/07/28 08:34:08;;;;;;;1.35;1.17;;;37.00;97.50;;;;;;5090754;28;20194;-71
2021/07/28 08:36:34;;;;;;;1.90;0.93;;;37.20;97.90;;;;;;5090986;28;20195;-71
2021/07/28 08:39:00;;;;;;;1.58;0.90;;;36.50;97.80;;;;;;5090374;28;20176;-71
2021/07/28 08:41:27;;;;;;;0.70;0.70;;;36.50;98.70;;;;;;5090824;28;20163;-71
2021/07/28 08:43:58;;;;;;;0.47;0.47;;;35.80;98.50;;;;;;5088781;28;20190;-71
2021/07/28 08:46:27;;;;;;;4.25;0.93;;;35.90;98.40;;;;;;5091202;28;20164;-72
2021/07/28 08:48:54;;;;;;;9.38;1.10;;;36.10;99.10;;;;;;5090809;28;20221;-71
2021/07/28 08:51:27;;;;;;;0.60;0.57;;;35.70;99.00;;;;;;5091002;28;20171;-71
2021/07/28 08:53:53;;;;;;;1.60;0.55;;;35.80;98.70;;;;;;5090537;28;20195;-71
2021/07/28 08:56:22;;;;;;;3.58;1.27;;;35.90;99.60;;;;;;5090815;28;20277;-71
2021/07/28 08:58:49;;;;;;;0.75;0.65;;;36.40;98.70;;;;;;5090676;28;20175;-71
2021/07/28 09:01:15;;;;;;;1.58;1.10;;;36.30;99.70;;;;;;5090780;28;20195;-71
2021/07/28 09:03:41;;;;;;;0.60;0.40;;;36.00;98.70;;;;;;5090626;28;20191;-71
2021/07/28 09:06:07;;;;;;;3.13;0.77;;;36.00;98.70;;;;;;5089123;28;20163;-71
2021/07/28 09:08:36;;;;;;;1.35;1.25;;;37.00;97.80;;;;;;5090474;28;20163;-71
2021/07/28 09:11:07;;;;;;;1.80;1.05;;;37.50;98.70;;;;;;5084820;28;20208;-72
2021/07/28 09:13:38;;;;;;;2.15;0.30;;;36.40;98.20;;;;;;5089088;28;20702;-71
2021/07/28 09:16:18;;;;;;;0.50;0.50;;;36.10;97.80;;;;;;5090348;28;20203;-72
2021/07/28 09:18:53;;;;;;;2.85;1.30;;;36.50;98.40;;;;;;5090571;28;20155;-71
2021/07/28 09:21:24;;;;;;;0.93;0.63;;;35.60;98.30;;;;;;5089116;28;20163;-71
2021/07/28 09:23:54;;;;;;;0.68;0.40;;;36.30;98.60;;;;;;5090438;28;20151;-71
2021/07/28 09:26:33;;;;;;;1.30;1.08;;;36.90;97.40;;;;;;5090403;28;20175;-71
2021/07/28 09:29:04;;;;;;;1.10;0.75;;;36.90;98.40;;;;;;5090207;28;20519;-72
2021/07/28 09:31:35;;;;;;;0.45;0.30;;;37.60;96.80;;;;;;5090232;28;20612;-71
2021/07/28 09:34:18;;;;;;;3.90;1.67;;;38.60;96.70;;;;;;5088976;28;20195;-71
2021/07/28 09:36:45;;;;;;;2.05;0.82;;;38.30;96.70;;;;;;5090294;28;20168;-71
2021/07/28 09:39:22;;;;;;;3.60;0.73;;;38.30;97.80;;;;;;5088494;28;20171;-71
2021/07/28 09:41:48;;;;;;;5.07;0.75;;;38.60;96.40;;;;;;5090212;28;20167;-71
2021/07/28 09:44:27;;;;;;;3.85;1.48;;;38.40;96.90;;;;;;5089740;28;20197;-72
2021/07/28 09:47:20;;;;;;;1.25;0.85;;;37.50;97.20;;;;;;5088340;28;20201;-71
2021/07/28 09:49:50;;;;;;;1.02;0.70;;;36.00;97.50;;;;;;5088779;28;20160;-71
2021/07/28 09:52:22;;;;;;;4.20;0.98;;;36.60;97.30;;;;;;5088590;28;20171;-71
2021/07/28 09:54:53;;;;;;;3.15;1.08;;;36.70;98.20;;;;;;5089717;28;20203;-71
2021/07/28 09:57:21;;;;;;;1.08;0.93;;;36.90;97.70;;;;;;5089731;28;20156;-71
2021/07/28 10:00:08;;;;;;;1.30;0.93;;;37.70;98.50;;;;;;5088594;28;20217;-71
2021/07/28 10:02:35;;;;;;;17.70;5.68;;;38.10;96.80;;;;;;5088266;28;20174;-72
2021/07/28 10:05:04;;;;;;;3.00;0.95;;;38.70;97.40;;;;;;5089496;28;20187;-72
2021/07/28 10:07:31;;;;;;;6.18;1.10;;;39.10;95.90;;;;;;5089461;28;20233;-72
2021/07/28 10:10:07;;;;;;;1.23;0.85;;;38.60;96.20;;;;;;5089524;28;20181;-71
2021/07/28 10:12:34;;;;;;;1.10;1.00;;;39.60;95.20;;;;;;5069669;28;20190;-71
2021/07/28 10:15:01;;;;;;;6.18;0.77;;;39.30;95.70;;;;;;5077598;28;20658;-70
2021/07/28 10:17:29;;;;;;;1.63;0.70;;;37.90;94.70;;;;;;5089207;28;20162;-70
2021/07/28 10:19:56;;;;;;;2.03;1.58;;;36.10;95.90;;;;;;5089535;28;20174;-70
2021/07/28 10:22:22;;;;;;;1.98;1.50;;;36.30;96.50;;;;;;5089313;28;20164;-71
2021/07/28 10:24:48;;;;;;;8.38;0.70;;;35.50;96.20;;;;;;5089264;28;20223;-70
2021/07/28 10:27:16;;;;;;;3.20;1.33;;;34.70;96.80;;;;;;5089325;28;20167;-70
2021/07/28 10:29:42;;;;;;;1.60;0.88;;;35.20;97.20;;;;;;5087763;28;20183;-70
2021/07/28 10:32:08;;;;;;;4.90;1.08;;;34.30;97.50;;;;;;5087977;28;20221;-70
2021/07/28 10:34:37;;;;;;;6.13;0.75;;;34.40;98.10;;;;;;5087746;28;20274;-70
2021/07/28 10:37:08;;;;;;;0.70;0.70;;;34.50;97.30;;;;;;5088790;28;20151;-70
2021/07/28 10:39:40;;;;;;;1.10;1.00;;;34.70;97.10;;;;;;5089083;28;20166;-70
2021/07/28 10:42:30;;;;;;;1.02;0.82;;;34.10;98.00;;;;;;5088877;28;20190;-70
2021/07/28 10:45:04;;;;;;;0.82;0.50;;;34.50;99.20;;;;;;5089061;28;20636;-70
2021/07/28 10:47:40;;;;;;;2.22;1.33;;;35.20;97.90;;;;;;5088990;28;20285;-70
2021/07/28 10:50:24;;;;;;;2.13;1.10;;;36.00;98.70;;;;;;5088892;28;20159;-70
2021/07/28 10:52:50;;;;;;;2.15;1.30;;;36.60;96.90;;;;;;5087289;28;20199;-70
2021/07/28 10:55:22;;;;;;;1.05;0.77;;;35.60;97.90;;;;;;5088994;28;20190;-70
2021/07/28 10:57:54;;;;;;;1.08;0.95;;;34.90;98.00;;;;;;5089120;28;20163;-70
2021/07/28 11:00:35;;;;;;;3.15;0.93;;;35.10;97.70;;;;;;5089113;28;20174;-70
2021/07/28 11:03:07;;;;;;;9.30;0.68;;;34.10;97.50;;;;;;5095546;28;20193;-70
2021/07/28 11:05:35;;;;;;;3.67;0.90;;;33.10;97.90;;;;;;5093961;28;20216;-69
2021/07/28 11:08:13;;;;;;;1.55;1.45;;;32.80;98.20;;;;;;5095690;28;20159;-69
2021/07/28 11:10:46;;;;;;;0.88;0.88;;;33.20;98.30;;;;;;5094162;28;20711;-70
2021/07/28 11:13:43;;;;;;;0.68;0.68;;;33.50;98.10;;;;;;5093951;28;20201;-70
2021/07/28 11:16:09;;;;;;;1.13;1.05;;;34.20;96.90;;;;;;5074720;28;20211;-70
2021/07/28 11:18:44;;;;;;;0.68;0.68;;;34.20;96.90;;;;;;5075347;28;20565;-70
2021/07/28 11:21:14;;;;;;;8.88;0.65;;;34.60;96.10;;;;;;5075260;28;20179;-70
2021/07/28 11:23:42;;;;;;;1.13;0.93;;;35.00;96.20;;;;;;5075239;28;20148;-70
2021/07/28 11:26:25;;;;;;;0.57;0.52;;;36.30;95.40;;;;;;5075267;28;20216;-70
2021/07/28 11:28:55;;;;;;;1.38;0.85;;;36.10;95.60;;;;;;5074946;28;20221;-70
2021/07/28 11:31:33;;;;;;;1.33;1.23;;;35.00;97.00;;;;;;5075064;28;20192;-70
2021/07/28 11:34:06;;;;;;;0.47;0.47;;;35.90;96.00;;;;;;5073943;28;20164;-70
2021/07/28 11:36:33;;;;;;;0.93;0.88;;;36.00;96.60;;;;;;5075069;28;20195;-70
2021/07/28 11:39:10;;;;;;;0.52;0.52;;;35.50;96.70;;;;;;5075324;28;20630;-70
2021/07/28 11:41:37;;;;;;;1.00;0.90;;;34.90;97.50;;;;;;5075018;28;20194;-70
2021/07/28 11:44:03;;;;;;;0.60;0.60;;;35.10;97.90;;;;;;5075104;28;20160;-70
2021/07/28 11:46:29;;;;;;;0.90;0.80;;;35.70;96.90;;;;;;5075025;28;20183;-70
2021/07/28 11:48:59;;;;;;;0.98;0.93;;;35.60;97.20;;;;;;5074581;28;20223;-70
2021/07/28 11:51:28;;;;;;;0.85;0.80;;;35.50;96.70;;;;;;5074895;28;20191;-70
2021/07/28 11:54:15;;;;;;;0.32;0.20;;;34.30;98.10;;;;;;5075267;28;20210;-70
2021/07/28 11:56:54;;;;;;;1.00;0.98;;;34.30;98.00;;;;;;5076109;28;20188;-70
2021/07/28 11:59:31;;;;;;;2.65;0.90;;;34.70;97.70;;;;;;5095535;28;20155;-70
2021/07/28 12:02:02;;;;;;;0.47;0.40;;;35.10;97.70;;;;;;5093622;28;20190;-70
2021/07/28 12:04:29;;;;;;;1.25;1.10;;;34.50;97.90;;;;;;5095194;28;20235;-70
2021/07/28 12:07:00;;;;;;;0.52;0.52;;;34.80;99.00;;;;;;5093676;28;20168;-71
2021/07/28 12:09:27;;;;;;;1.00;1.00;;;34.50;98.70;;;;;;5093772;28;20163;-70
2021/07/28 12:11:58;;;;;;;1.70;1.60;;;33.70;99.60;;;;;;5093357;28;20202;-71
2021/07/28 12:14:29;;;;;;;0.20;0.20;;;32.70;99.90;;;;;;5089333;28;20171;-70
2021/07/28 12:17:04;;;;;;;6.82;1.92;;;32.30;99.90;;;;;;5091029;28;20162;-71
2021/07/28 12:19:41;;;;;;;1.50;1.30;;;32.50;99.90;;;;;;5091661;28;20163;-70
2021/07/28 12:22:13;;;;;;;0.90;0.52;;;32.10;99.90;;;;;;5090136;28;20552;-70
2021/07/28 12:24:47;;;;;;;3.85;1.35;;;32.30;99.90;;;;;;5090096;28;20275;-70
2021/07/28 12:27:25;;;;;;;0.75;0.75;;;32.60;99.90;;;;;;5091361;28;20156;-70
2021/07/28 12:29:57;;;;;;;1.17;0.60;;;32.50;99.90;;;;;;5091141;28;20166;-70
2021/07/28 12:32:40;;;;;;;2.92;1.58;;;32.80;99.90;;;;;;5089928;28;20239;-70
2021/07/28 12:35:14;;;;;;;2.25;2.05;;;32.70;99.90;;;;;;5091350;28;20232;-70
2021/07/28 12:37:39;;;;;;;1.35;1.13;;;32.50;99.90;;;;;;5090029;28;20655;-69
2021/07/28 12:40:06;;;;;;;1.35;0.98;;;32.90;99.90;;;;;;5090873;28;20160;-71
2021/07/28 12:42:32;;;;;;;2.25;0.40;;;33.00;99.90;;;;;;5091066;28;20195;-70
2021/07/28 12:44:59;;;;;;;12.07;1.23;;;32.60;99.90;;;;;;5089863;28;20175;-70
2021/07/28 12:47:25;;;;;;;1.90;1.27;;;32.80;99.90;;;;;;5091075;28;20207;-70
2021/07/28 12:49:51;;;;;;;0.65;0.65;;;32.30;99.90;;;;;;5091271;28;20166;-70
2021/07/28 12:52:17;;;;;;;1.58;0.50;;;31.90;99.90;;;;;;5091030;28;20233;-70
2021/07/28 12:54:43;;;;;;;2.22;0.82;;;31.90;99.90;;;;;;5091076;28;20199;-70
2021/07/28 12:57:09;;;;;;;1.70;0.93;;;32.20;99.90;;;;;;5089421;28;20168;-71